createdAt,value
2018-11-03T00:02:19.745Z,8.33
2018-11-03T00:07:14.147Z,7.33
2018-11-03T00:12:07.545Z,7.65
2018-11-03T00:17:02.070Z,7.55
2018-11-03T00:21:55.535Z,7.80
2018-11-03T00:26:48.931Z,7.60
2018-11-03T00:31:43.214Z,7.12
2018-11-03T00:36:36.557Z,7.00
2018-11-03T00:41:36.331Z,7.60
2018-11-03T00:46:29.852Z,7.10
2018-11-03T00:51:23.798Z,7.67
2018-11-03T00:56:17.961Z,8.70
2018-11-03T01:01:11.278Z,8.73
2018-11-03T01:06:04.794Z,9.15
2018-11-03T01:10:58.382Z,9.23
2018-11-03T01:15:51.724Z,9.20
2018-11-03T01:20:46.709Z,9.10
2018-11-03T01:25:40.133Z,9.53
2018-11-03T01:30:33.720Z,7.87
2018-11-03T01:35:27.132Z,7.85
2018-11-03T01:40:20.539Z,8.03
2018-11-03T01:45:13.952Z,7.85
2018-11-03T01:50:09.999Z,7.42
2018-11-03T01:55:03.608Z,7.40
2018-11-03T01:59:56.982Z,8.00
2018-11-03T02:04:50.369Z,8.13
2018-11-03T02:09:43.941Z,8.60
2018-11-03T02:14:37.326Z,8.70
2018-11-03T02:19:30.834Z,8.73
2018-11-03T02:24:24.531Z,8.43
2018-11-03T02:29:18.226Z,8.00
2018-11-03T02:34:11.565Z,9.08
2018-11-03T02:39:07.506Z,8.43
2018-11-03T02:44:00.865Z,9.15
2018-11-03T02:48:54.337Z,8.70
2018-11-03T02:53:48.161Z,7.97
2018-11-03T02:58:41.627Z,8.30
2018-11-03T03:03:36.393Z,7.87
2018-11-03T03:08:29.849Z,7.70
2018-11-03T03:13:23.239Z,7.17
2018-11-03T03:18:16.626Z,8.13
2018-11-03T03:23:10.007Z,8.85
2018-11-03T03:28:03.341Z,7.62
2018-11-03T03:32:56.748Z,7.28
2018-11-03T03:37:51.069Z,7.72
2018-11-03T03:42:44.431Z,7.80
2018-11-03T03:47:37.787Z,8.03
2018-11-03T03:52:31.246Z,8.08
2018-11-03T03:57:24.698Z,8.23
2018-11-03T04:02:18.267Z,7.78
2018-11-03T04:07:11.619Z,7.87
2018-11-03T04:12:05.744Z,8.30
2018-11-03T04:17:00.329Z,7.08
2018-11-03T04:21:54.958Z,9.67
2018-11-03T04:26:48.386Z,9.15
2018-11-03T04:31:41.743Z,8.58
2018-11-03T04:36:35.233Z,9.05
2018-11-03T04:41:28.698Z,8.13
2018-11-03T04:46:22.160Z,8.10
2018-11-03T04:51:15.677Z,7.78
2018-11-03T04:56:09.695Z,7.45
2018-11-03T05:01:03.093Z,7.42
2018-11-03T05:05:57.304Z,7.35
2018-11-03T05:10:50.654Z,8.43
2018-11-03T05:15:44.001Z,8.23
2018-11-03T05:20:37.692Z,7.40
2018-11-03T05:25:31.115Z,8.10
2018-11-03T05:30:24.527Z,8.20
2018-11-03T05:35:17.875Z,8.30
2018-11-03T05:40:11.271Z,8.43
2018-11-03T05:45:04.776Z,8.90
2018-11-03T05:49:58.105Z,8.90
2018-11-03T05:54:51.472Z,8.55
2018-11-03T05:59:44.861Z,8.95
2018-11-03T06:04:38.242Z,9.10
2018-11-03T06:09:32.534Z,8.88
2018-11-03T06:14:25.958Z,9.15
2018-11-03T06:19:19.312Z,9.33
2018-11-03T06:24:12.700Z,9.78
2018-11-03T06:29:06.803Z,8.75
2018-11-03T06:34:00.499Z,8.40
2018-11-03T06:38:55.043Z,8.78
2018-11-03T06:43:48.550Z,8.68
2018-11-03T06:48:42.012Z,8.90
2018-11-03T06:53:35.592Z,8.95
2018-11-03T06:58:29.145Z,8.83
2018-11-03T07:03:22.511Z,9.55
2018-11-03T07:08:15.844Z,10.63
2018-11-03T07:13:09.412Z,9.25
2018-11-03T07:18:03.396Z,9.78
2018-11-03T07:22:56.729Z,9.43
2018-11-03T07:27:50.095Z,8.70
2018-11-03T07:32:43.526Z,8.73
2018-11-03T07:37:37.941Z,9.00
2018-11-03T07:42:31.273Z,8.80
2018-11-03T07:47:24.690Z,8.63
2018-11-03T07:52:18.097Z,9.15
2018-11-03T07:57:11.531Z,9.45
2018-11-03T08:02:05.592Z,9.45
2018-11-03T08:06:59.195Z,10.80
2018-11-03T08:11:52.627Z,10.13
2018-11-03T08:16:46.026Z,9.35
2018-11-03T08:21:39.381Z,9.18
2018-11-03T08:26:32.811Z,9.18
2018-11-03T08:31:26.230Z,9.75
2018-11-03T08:36:19.637Z,9.38
2018-11-03T08:41:13.028Z,10.95
2018-11-03T08:46:07.449Z,11.33
2018-11-03T08:51:00.751Z,10.20
2018-11-03T08:55:54.611Z,9.98
2018-11-03T09:00:47.942Z,10.43
2018-11-03T09:05:41.323Z,10.53
2018-11-03T09:10:34.653Z,10.75
2018-11-03T09:15:28.026Z,10.00
2018-11-03T09:20:21.405Z,10.23
2018-11-03T09:25:15.702Z,10.50
2018-11-03T09:30:12.418Z,10.20
2018-11-03T09:35:07.670Z,10.65
2018-11-03T09:40:01.217Z,10.75
2018-11-03T09:44:54.677Z,10.55
2018-11-03T09:49:48.062Z,11.95
2018-11-03T09:54:41.434Z,10.10
2018-11-03T09:59:34.856Z,10.75
2018-11-03T10:04:28.201Z,11.15
2018-11-03T10:09:21.641Z,11.88
2018-11-03T10:14:15.134Z,11.25
2018-11-03T10:19:08.531Z,11.00
2018-11-03T10:24:02.346Z,12.20
2018-11-03T10:28:55.700Z,12.68
2018-11-03T10:33:50.213Z,13.32
2018-11-03T10:38:43.479Z,14.10
2018-11-03T10:43:36.813Z,13.22
2018-11-03T10:48:30.243Z,13.68
2018-11-03T10:53:23.687Z,13.13
2018-11-03T10:58:17.063Z,14.35
2018-11-03T11:04:18.569Z,13.53
2018-11-03T11:09:17.592Z,14.40
2018-11-03T11:14:11.040Z,16.15
2018-11-03T11:19:04.619Z,14.38
2018-11-03T11:23:58.006Z,14.47
2018-11-03T11:28:51.309Z,13.10
2018-11-03T11:33:44.652Z,12.03
2018-11-03T11:38:38.192Z,11.12
2018-11-03T11:43:31.610Z,11.10
2018-11-03T11:48:27.398Z,10.18
2018-11-03T11:53:21.207Z,10.70
2018-11-03T11:58:14.842Z,11.03
2018-11-03T12:03:08.410Z,9.65
2018-11-03T12:08:01.790Z,9.70
2018-11-03T12:12:55.304Z,9.30
2018-11-03T12:17:51.079Z,9.38
2018-11-03T12:22:45.917Z,6.72
2018-11-03T12:27:39.791Z,7.92
2018-11-03T12:32:33.456Z,6.45
2018-11-03T12:37:26.939Z,6.83
2018-11-03T12:42:20.437Z,7.50
2018-11-03T12:47:23.349Z,7.62
2018-11-03T12:52:17.976Z,6.25
2018-11-03T12:57:12.926Z,6.60
2018-11-03T13:02:06.939Z,7.45
2018-11-03T13:07:00.452Z,5.17
2018-11-03T13:11:56.529Z,4.83
2018-11-03T13:16:50.247Z,6.62
2018-11-03T13:21:46.156Z,5.30
2018-11-03T13:26:40.521Z,5.42
2018-11-03T13:31:34.041Z,6.30
2018-11-03T13:36:27.843Z,6.62
2018-11-03T13:41:21.881Z,6.03
2018-11-03T13:46:15.313Z,5.95
2018-11-03T13:51:08.833Z,6.12
2018-11-03T13:56:02.197Z,5.45
2018-11-03T14:00:55.518Z,5.65
2018-11-03T14:05:56.231Z,5.55
2018-11-03T14:10:49.598Z,6.45
2018-11-03T14:15:43.021Z,5.95
2018-11-03T14:20:36.527Z,6.70
2018-11-03T14:25:29.899Z,6.28
2018-11-03T14:30:23.582Z,5.97
2018-11-03T14:35:16.946Z,7.00
2018-11-03T14:40:12.935Z,6.22
2018-11-03T14:45:08.395Z,5.33
2018-11-03T14:50:03.253Z,5.65
2018-11-03T14:54:56.673Z,5.55
2018-11-03T14:59:50.774Z,5.53
2018-11-03T15:04:44.364Z,5.08
2018-11-03T15:09:38.655Z,5.03
2018-11-03T15:14:31.994Z,5.20
2018-11-03T15:19:25.351Z,4.78
2018-11-03T15:24:18.804Z,4.45
2018-11-03T15:29:12.206Z,3.80
2018-11-03T15:34:05.597Z,3.85
2018-11-03T15:38:59.876Z,3.60
2018-11-03T15:43:53.184Z,3.62
2018-11-03T15:48:46.571Z,3.42
2018-11-03T15:53:39.938Z,3.72
2018-11-03T15:58:33.250Z,3.30
2018-11-03T16:03:26.641Z,2.80
2018-11-03T16:08:20.010Z,2.87
2018-11-03T16:13:13.344Z,2.75
2018-11-03T16:18:06.692Z,2.92
2018-11-03T16:23:00.350Z,2.83
2018-11-03T16:27:53.742Z,3.02
2018-11-03T16:32:47.153Z,2.47
2018-11-03T16:37:40.959Z,2.87
2018-11-03T16:42:34.541Z,2.50
2018-11-03T16:47:29.101Z,3.00
2018-11-03T16:52:22.479Z,3.00
2018-11-03T16:57:15.897Z,5.08
2018-11-03T17:02:09.173Z,4.25
2018-11-03T17:07:03.373Z,3.80
2018-11-03T17:11:56.727Z,3.85
2018-11-03T17:17:55.740Z,4.12
2018-11-03T17:22:49.754Z,5.25
2018-11-03T17:27:43.161Z,5.97
2018-11-03T17:32:36.778Z,5.35
2018-11-03T17:37:30.075Z,25.15
2018-11-03T17:42:23.421Z,7.37
2018-11-03T17:47:17.716Z,6.85
2018-11-03T17:52:11.974Z,5.72
2018-11-03T17:57:05.540Z,5.95
2018-11-03T18:01:58.904Z,6.55
2018-11-03T18:06:52.266Z,6.80
2018-11-03T18:11:45.686Z,6.83
2018-11-03T18:16:39.066Z,7.15
2018-11-03T18:21:33.189Z,6.85
2018-11-03T18:26:26.532Z,15.90
2018-11-03T18:31:19.921Z,12.53
2018-11-03T18:36:13.344Z,10.82
2018-11-03T18:41:06.764Z,10.63
2018-11-03T18:46:00.158Z,11.97
2018-11-03T18:50:53.501Z,11.60
2018-11-03T18:55:47.042Z,8.78
2018-11-03T19:00:40.372Z,9.43
2018-11-03T19:05:33.797Z,8.13
2018-11-03T19:10:27.818Z,7.87
2018-11-03T19:15:21.165Z,7.58
2018-11-03T19:20:15.352Z,6.42
2018-11-03T19:25:10.842Z,8.35
2018-11-03T19:30:05.752Z,8.63
2018-11-03T19:34:59.125Z,8.00
2018-11-03T19:39:52.502Z,7.70
2018-11-03T19:44:45.808Z,7.25
2018-11-03T19:49:39.109Z,7.60
2018-11-03T19:54:33.442Z,7.60
2018-11-03T19:59:26.796Z,7.83
2018-11-03T20:04:20.141Z,7.30
2018-11-03T20:09:13.827Z,7.37
2018-11-03T20:14:07.801Z,8.30
2018-11-03T20:19:01.685Z,8.05
2018-11-03T20:23:55.012Z,8.33
2018-11-03T20:28:48.347Z,8.33
2018-11-03T20:33:41.878Z,8.95
2018-11-03T20:38:35.323Z,9.43
2018-11-03T20:43:28.701Z,9.00
2018-11-03T20:48:22.060Z,9.25
2018-11-03T20:53:15.970Z,8.53
2018-11-03T20:58:09.362Z,9.23
2018-11-03T21:03:02.661Z,9.75
2018-11-03T21:07:56.029Z,9.30
2018-11-03T21:12:49.425Z,8.35
2018-11-03T21:17:42.739Z,8.75
2018-11-03T21:22:36.091Z,8.55
2018-11-03T21:27:29.460Z,8.28
2018-11-03T21:32:23.006Z,9.55
2018-11-03T21:37:16.153Z,10.35
2018-11-03T21:42:10.071Z,11.10
2018-11-03T21:47:03.565Z,12.05
2018-11-03T21:51:57.002Z,11.33
2018-11-03T21:56:50.372Z,10.15
2018-11-03T22:01:43.855Z,10.05
2018-11-03T22:06:37.625Z,10.63
2018-11-03T22:11:31.067Z,10.25
2018-11-03T22:16:24.442Z,10.15
2018-11-03T22:21:17.751Z,9.90
2018-11-03T22:26:11.541Z,10.55
2018-11-03T22:31:04.897Z,10.65
2018-11-03T22:35:58.290Z,10.05
2018-11-03T22:40:51.562Z,9.75
2018-11-03T22:45:44.903Z,10.85
2018-11-03T22:50:38.359Z,9.78
2018-11-03T22:55:32.458Z,10.70
2018-11-03T23:00:25.959Z,9.63
2018-11-03T23:05:19.332Z,10.48
2018-11-03T23:10:13.352Z,10.30
2018-11-03T23:15:08.269Z,9.60
2018-11-03T23:20:01.598Z,9.98
2018-11-03T23:24:54.935Z,10.28
2018-11-03T23:29:48.514Z,10.15
2018-11-03T23:34:41.688Z,10.32
2018-11-03T23:39:35.065Z,9.85
2018-11-03T23:44:28.486Z,10.15
2018-11-03T23:49:21.800Z,10.63
2018-11-03T23:54:15.595Z,9.80
2018-11-03T23:59:09.172Z,9.75
